Time;durP1;ratioP1;P1;durP2;ratioP2;P2;SDS_P1;SDS_P2;PMS_P1;PMS_P2;Temp;Humidity;BMP_temperature;BMP_pressure;BME280_temperature;BME280_humidity;BME280_pressure;Samples;Min_cycle;Max_cycle;Signal;HPM_P1;HPM_P2
2022/03/26 00:05:21;;;;;;;29.70;17.33;;;14.50;77.90;;;;;;5054626;28;20474;-72
2022/03/26 00:08:38;;;;;;;23.47;16.83;;;14.50;78.00;;;;;;5072922;28;20428;-72
2022/03/26 00:11:29;;;;;;;29.57;19.73;;;14.40;78.00;;;;;;5054251;28;20502;-72
2022/03/26 00:14:01;;;;;;;27.97;19.63;;;14.40;78.00;;;;;;5055684;28;20441;-72
2022/03/26 00:16:32;;;;;;;26.63;18.63;;;14.40;78.10;;;;;;5054510;28;21013;-72
2022/03/26 00:19:03;;;;;;;27.10;18.57;;;14.40;78.20;;;;;;5055174;28;20728;-72
2022/03/26 00:22:20;;;;;;;26.13;17.87;;;14.40;78.20;;;;;;5054838;28;20516;-72
2022/03/26 00:24:48;;;;;;;29.10;19.33;;;14.40;78.20;;;;;;5050069;28;20437;-72
2022/03/26 00:27:15;;;;;;;27.17;18.90;;;14.30;78.10;;;;;;5054392;28;20426;-72
2022/03/26 00:30:32;;;;;;;28.50;18.97;;;14.30;78.10;;;;;;5054197;28;20469;-72
2022/03/26 00:33:25;;;;;;;30.80;18.97;;;14.30;78.20;;;;;;5054573;28;20459;-72
2022/03/26 00:35:53;;;;;;;28.20;18.77;;;14.30;78.20;;;;;;5054466;28;20491;-72
2022/03/26 00:39:10;;;;;;;33.37;19.83;;;14.30;78.30;;;;;;5054651;28;20444;-72
2022/03/26 00:42:29;;;;;;;29.10;18.70;;;14.30;78.30;;;;;;5072016;28;20431;-72
2022/03/26 00:46:10;;;;;;;26.60;18.50;;;14.30;78.40;;;;;;5040885;28;20457;-72
2022/03/26 00:49:29;;;;;;;27.90;18.40;;;14.20;78.30;;;;;;5023685;28;20458;-72
2022/03/26 00:52:50;;;;;;;31.10;20.30;;;14.20;78.40;;;;;;5051414;28;20457;-72
2022/03/26 00:59:27;;;;;;;30.27;19.37;;;14.20;78.50;;;;;;5072094;28;20418;-72
2022/03/26 01:01:59;;;;;;;29.37;18.97;;;14.10;78.50;;;;;;5052013;28;20414;-72
2022/03/26 01:04:30;;;;;;;33.27;20.10;;;14.10;78.70;;;;;;5052564;28;20421;-72
2022/03/26 01:07:01;;;;;;;29.27;18.90;;;14.10;78.70;;;;;;5170590;22;20486;-71
2022/03/26 01:09:53;;;;;;;30.30;18.60;;;14.10;78.70;;;;;;5038678;28;20475;-71
2022/03/26 01:13:17;;;;;;;27.03;18.00;;;14.10;78.70;;;;;;5041850;28;20409;-69
2022/03/26 01:16:12;;;;;;;31.33;18.13;;;14.10;78.70;;;;;;5030336;28;20472;-69
2022/03/26 01:18:42;;;;;;;28.33;19.70;;;14.00;78.50;;;;;;5064821;28;20420;-69
2022/03/26 01:21:58;;;;;;;30.60;19.90;;;14.10;78.80;;;;;;5091113;28;20396;-69
2022/03/26 01:26:05;;;;;;;26.13;19.70;;;14.10;78.80;;;;;;5071161;28;20436;-69
2022/03/26 01:28:33;;;;;;;27.23;18.30;;;14.00;78.70;;;;;;5071753;28;20460;-69
2022/03/26 01:31:49;;;;;;;35.73;20.53;;;14.00;78.80;;;;;;5053124;28;21004;-69
2022/03/26 01:35:08;;;;;;;30.97;19.80;;;14.00;78.90;;;;;;5070853;28;20411;-69
2022/03/26 01:38:27;;;;;;;29.93;19.37;;;14.00;78.90;;;;;;5053167;28;20494;-69
2022/03/26 01:40:58;;;;;;;30.80;20.00;;;13.90;78.80;;;;;;5070599;28;20405;-69
2022/03/26 01:52:36;;;;;;;29.90;18.33;;;13.90;79.00;;;;;;5053525;28;20444;-69
2022/03/26 01:55:06;;;;;;;29.13;19.17;;;13.80;79.10;;;;;;5057660;28;20715;-69
2022/03/26 01:57:37;;;;;;;31.27;18.73;;;13.80;79.40;;;;;;5062903;28;20505;-68
2022/03/26 02:00:08;;;;;;;29.97;18.87;;;13.80;79.30;;;;;;5057907;28;20420;-69
2022/03/26 02:02:43;;;;;;;28.30;19.17;;;13.80;79.30;;;;;;5072552;28;20420;-68
2022/03/26 02:05:18;;;;;;;33.13;20.13;;;13.80;79.30;;;;;;5083977;28;20508;-69
2022/03/26 02:07:46;;;;;;;29.27;19.07;;;13.80;79.30;;;;;;5035940;28;20474;-70
2022/03/26 02:10:17;;;;;;;28.63;19.40;;;13.70;79.20;;;;;;5071237;28;20865;-69
2022/03/26 02:12:45;;;;;;;34.80;18.90;;;13.70;79.30;;;;;;5052366;28;20424;-70
2022/03/26 02:15:12;;;;;;;29.53;20.17;;;13.80;79.40;;;;;;5052781;28;20455;-70
2022/03/26 02:17:44;;;;;;;28.57;18.77;;;13.70;79.30;;;;;;5062607;28;20959;-70
2022/03/26 02:21:01;;;;;;;32.37;19.83;;;13.70;79.40;;;;;;5090740;28;20401;-70
2022/03/26 02:24:21;;;;;;;27.30;19.13;;;13.70;79.40;;;;;;5071987;28;20416;-70
2022/03/26 02:28:01;;;;;;;27.57;18.57;;;13.70;79.50;;;;;;5078962;28;20433;-70
2022/03/26 02:30:30;;;;;;;25.83;18.40;;;13.70;79.60;;;;;;5076906;28;20413;-70
2022/03/26 02:33:47;;;;;;;27.47;20.00;;;13.60;79.60;;;;;;5038819;28;20459;-70
2022/03/26 02:37:07;;;;;;;31.37;18.73;;;13.60;79.70;;;;;;5075841;28;20535;-70
2022/03/26 02:40:26;;;;;;;29.77;19.07;;;13.60;79.70;;;;;;5071778;28;20832;-69
2022/03/26 02:43:44;;;;;;;32.17;19.47;;;13.60;79.80;;;;;;5051209;28;20409;-70
2022/03/26 02:47:01;;;;;;;30.70;19.97;;;13.50;79.70;;;;;;5081236;28;20444;-70
2022/03/26 02:49:27;;;;;;;33.20;19.77;;;13.50;79.80;;;;;;5030871;28;20467;-70
2022/03/26 02:52:48;;;;;;;31.37;20.50;;;13.50;79.90;;;;;;5051591;28;20437;-70
2022/03/26 02:59:51;;;;;;;33.80;20.90;;;13.50;80.00;;;;;;5051476;28;20409;-69
2022/03/26 03:02:50;;;;;;;29.90;19.10;;;13.40;80.00;;;;;;5051815;28;20436;-70
2022/03/26 03:05:16;;;;;;;34.53;20.50;;;13.40;80.00;;;;;;5052305;28;20889;-70
2022/03/26 03:07:50;;;;;;;32.00;19.67;;;13.40;80.00;;;;;;5082457;28;20428;-70
2022/03/26 03:11:10;;;;;;;29.80;20.20;;;13.40;80.10;;;;;;5082624;28;20503;-70
2022/03/26 03:13:44;;;;;;;27.10;19.03;;;13.40;80.10;;;;;;5035102;28;20406;-70
2022/03/26 03:16:13;;;;;;;28.10;20.20;;;13.30;80.00;;;;;;5070783;28;20953;-69
2022/03/26 03:19:30;;;;;;;33.33;21.53;;;13.30;80.10;;;;;;5069677;28;20418;-69
2022/03/26 03:22:50;;;;;;;26.50;18.80;;;13.30;80.20;;;;;;5088141;28;20778;-70
2022/03/26 03:25:44;;;;;;;31.20;19.70;;;13.30;80.30;;;;;;5065892;28;20580;-70
2022/03/26 03:28:10;;;;;;;31.37;19.90;;;13.30;80.30;;;;;;5067012;28;20998;-70
2022/03/26 03:30:41;;;;;;;28.47;19.13;;;13.30;80.30;;;;;;5088315;28;20925;-69
2022/03/26 03:33:08;;;;;;;30.30;18.63;;;13.30;80.40;;;;;;5054990;28;20432;-70
2022/03/26 03:36:30;;;;;;;29.97;19.63;;;13.30;80.80;;;;;;5035139;28;20849;-69
2022/03/26 03:39:48;;;;;;;27.13;19.60;;;13.30;80.50;;;;;;5051621;28;20436;-70
2022/03/26 03:43:30;;;;;;;30.73;19.60;;;13.20;80.30;;;;;;5055024;28;20831;-69
2022/03/26 03:54:38;;;;;;;29.97;20.07;;;13.20;80.60;;;;;;5066124;28;20636;-70
2022/03/26 03:57:55;;;;;;;31.10;20.33;;;13.10;80.70;;;;;;5054832;28;20447;-70
2022/03/26 04:00:51;;;;;;;33.23;21.17;;;13.10;80.70;;;;;;5072788;28;20408;-69
2022/03/26 04:03:18;;;;;;;30.43;20.33;;;13.00;80.70;;;;;;5058471;28;20438;-70
2022/03/26 04:06:10;;;;;;;31.57;22.13;;;13.10;80.90;;;;;;5066537;28;20454;-70
2022/03/26 04:08:39;;;;;;;33.87;21.50;;;13.10;80.90;;;;;;5064544;28;20458;-70
2022/03/26 04:11:56;;;;;;;27.10;18.13;;;13.00;80.90;;;;;;5061181;28;20437;-70
2022/03/26 04:15:13;;;;;;;32.07;21.00;;;13.00;80.90;;;;;;5075120;28;20901;-70
2022/03/26 04:17:39;;;;;;;28.53;20.33;;;13.00;80.90;;;;;;5073837;28;20981;-69
2022/03/26 04:20:36;;;;;;;30.20;19.90;;;13.00;81.00;;;;;;5080979;28;20779;-69
2022/03/26 04:23:03;;;;;;;30.63;21.13;;;13.00;81.00;;;;;;5037660;28;20953;-70
2022/03/26 04:25:33;;;;;;;37.43;21.63;;;13.00;81.00;;;;;;5038102;28;20439;-70
2022/03/26 04:28:03;;;;;;;32.20;20.33;;;12.90;80.90;;;;;;5037806;28;20406;-69
2022/03/26 04:30:56;;;;;;;29.33;19.37;;;12.90;80.90;;;;;;5071506;28;20438;-70
2022/03/26 04:33:25;;;;;;;32.87;21.33;;;12.90;80.90;;;;;;5037124;28;20408;-70
2022/03/26 04:36:22;;;;;;;32.50;19.77;;;12.90;81.00;;;;;;5060158;28;20444;-70
2022/03/26 04:38:52;;;;;;;31.63;18.77;;;12.90;81.00;;;;;;5074182;28;20910;-70
2022/03/26 04:42:08;;;;;;;29.33;20.37;;;12.90;81.10;;;;;;5082705;28;20421;-70
2022/03/26 04:45:28;;;;;;;28.43;18.97;;;12.90;81.30;;;;;;5074125;28;20183;-70
2022/03/26 04:49:08;;;;;;;31.20;20.20;;;12.80;81.20;;;;;;5085824;28;20440;-70
2022/03/26 04:51:39;;;;;;;29.00;19.70;;;12.80;81.30;;;;;;5053248;28;20417;-70
2022/03/26 04:54:05;;;;;;;31.77;19.97;;;12.80;81.50;;;;;;5052955;28;20451;-70
2022/03/26 04:56:58;;;;;;;31.67;20.53;;;12.80;81.70;;;;;;5043701;28;20446;-71
2022/03/26 04:59:24;;;;;;;27.93;19.10;;;12.80;81.70;;;;;;5053765;28;20413;-70
2022/03/26 05:02:43;;;;;;;36.47;20.67;;;12.80;81.80;;;;;;5046742;28;20418;-71
2022/03/26 05:06:02;;;;;;;31.07;21.67;;;12.80;81.90;;;;;;5040180;28;20445;-70
2022/03/26 05:09:02;;;;;;;30.50;20.73;;;12.80;81.90;;;;;;5071040;28;20506;-71
2022/03/26 05:11:28;;;;;;;29.00;20.10;;;12.70;81.80;;;;;;5058553;28;20511;-70
2022/03/26 05:14:45;;;;;;;30.80;19.80;;;12.70;81.90;;;;;;5053384;28;20432;-71
2022/03/26 05:29:54;;;;;;;29.87;19.87;;;12.60;82.20;;;;;;5080645;28;20537;-71
2022/03/26 05:33:12;;;;;;;29.77;19.87;;;12.50;82.30;;;;;;5038000;28;20435;-71
2022/03/26 05:36:29;;;;;;;25.50;18.70;;;12.60;82.50;;;;;;5035587;28;20443;-70
2022/03/26 05:47:18;;;;;;;28.43;19.83;;;12.50;82.70;;;;;;5053169;28;20428;-71
2022/03/26 05:50:18;;;;;;;30.73;19.37;;;12.50;82.90;;;;;;5071056;28;20950;-71
2022/03/26 05:52:46;;;;;;;31.93;18.83;;;12.40;82.90;;;;;;5072242;28;20424;-71
2022/03/26 05:56:06;;;;;;;31.73;20.27;;;12.40;82.90;;;;;;5051970;28;20478;-71
2022/03/26 06:03:34;;;;;;;29.10;19.23;;;12.40;83.00;;;;;;5070265;28;20401;-71
2022/03/26 06:06:00;;;;;;;29.50;19.67;;;12.40;83.00;;;;;;5080318;28;20822;-71
2022/03/26 06:08:27;;;;;;;30.73;19.73;;;12.30;83.10;;;;;;5056680;28;20930;-70
2022/03/26 06:11:23;;;;;;;34.10;19.90;;;12.30;83.10;;;;;;5058494;28;20463;-71
2022/03/26 06:14:18;;;;;;;30.73;20.20;;;12.40;83.40;;;;;;5087960;28;20478;-71
2022/03/26 06:17:09;;;;;;;31.33;20.20;;;12.30;83.20;;;;;;5052058;28;20446;-71
2022/03/26 06:20:30;;;;;;;29.97;21.50;;;12.30;83.30;;;;;;5071269;28;20429;-70
2022/03/26 06:39:07;;;;;;;33.70;20.47;;;12.30;83.90;;;;;;5068641;28;20432;-71
2022/03/26 06:45:46;;;;;;;28.80;18.17;;;12.20;84.10;;;;;;5064327;28;20446;-71
2022/03/26 06:52:04;;;;;;;31.33;20.13;;;12.20;84.20;;;;;;5068840;28;21124;-71
2022/03/26 06:54:32;;;;;;;32.07;21.27;;;12.20;84.30;;;;;;5060861;28;20485;-71
2022/03/26 06:57:01;;;;;;;33.70;21.73;;;12.20;84.40;;;;;;5067062;28;20397;-71
2022/03/26 06:59:27;;;;;;;30.70;20.40;;;12.20;84.40;;;;;;5048474;28;20464;-71
2022/03/26 07:01:54;;;;;;;34.93;19.70;;;12.20;84.40;;;;;;5065349;28;20432;-71
2022/03/26 07:04:19;;;;;;;31.57;20.87;;;12.20;84.40;;;;;;5031749;28;20830;-71
2022/03/26 07:06:45;;;;;;;30.80;19.20;;;12.20;84.50;;;;;;5049483;28;20614;-71
2022/03/26 07:09:11;;;;;;;34.83;19.70;;;12.20;84.50;;;;;;5067802;28;20451;-71
2022/03/26 07:11:37;;;;;;;33.20;20.97;;;12.20;84.50;;;;;;5060891;28;20432;-71
2022/03/26 07:14:03;;;;;;;33.40;20.80;;;12.20;84.50;;;;;;5067275;28;20409;-71
2022/03/26 07:16:54;;;;;;;34.20;21.53;;;12.20;84.50;;;;;;5048457;28;20469;-71
2022/03/26 07:19:21;;;;;;;34.97;21.90;;;12.20;84.60;;;;;;5049835;28;20447;-71
2022/03/26 07:21:50;;;;;;;32.63;20.50;;;12.20;84.60;;;;;;5070094;28;20419;-71
2022/03/26 07:24:16;;;;;;;30.63;20.90;;;12.20;84.70;;;;;;5053892;28;20968;-71
2022/03/26 07:26:42;;;;;;;31.67;20.73;;;12.10;84.60;;;;;;5091530;28;20512;-71
2022/03/26 07:29:08;;;;;;;32.87;21.10;;;12.20;84.80;;;;;;5067842;28;20461;-71
2022/03/26 07:32:03;;;;;;;35.87;21.13;;;12.20;84.90;;;;;;5036625;28;20863;-71
2022/03/26 07:34:33;;;;;;;34.77;21.60;;;12.20;84.90;;;;;;5075577;28;20811;-71
2022/03/26 07:37:24;;;;;;;30.73;21.37;;;12.20;85.00;;;;;;5089377;28;20807;-71
2022/03/26 07:39:52;;;;;;;30.50;19.50;;;12.20;85.00;;;;;;5052055;28;20459;-70
2022/03/26 07:42:19;;;;;;;32.27;20.00;;;12.20;85.10;;;;;;5064804;28;20445;-71
2022/03/26 07:44:45;;;;;;;33.73;21.77;;;12.10;85.00;;;;;;5082588;28;20485;-71
2022/03/26 07:47:17;;;;;;;35.30;21.07;;;12.10;85.10;;;;;;5053812;28;20770;-72
2022/03/26 07:49:43;;;;;;;27.33;20.57;;;12.20;85.20;;;;;;5072329;28;20502;-71
2022/03/26 07:52:09;;;;;;;31.27;20.43;;;12.20;85.20;;;;;;5068912;28;20983;-71
2022/03/26 07:54:39;;;;;;;34.47;22.33;;;12.20;85.20;;;;;;5089461;28;20400;-72
2022/03/26 07:57:05;;;;;;;31.27;20.13;;;12.20;85.30;;;;;;5068097;28;20420;-72
2022/03/26 07:59:35;;;;;;;33.77;20.93;;;12.10;85.30;;;;;;5051064;28;20424;-70
2022/03/26 08:02:05;;;;;;;35.60;21.57;;;12.10;85.40;;;;;;5051563;28;20469;-71
2022/03/26 08:04:31;;;;;;;36.20;22.43;;;12.20;85.50;;;;;;5053942;28;20449;-71
2022/03/26 08:06:57;;;;;;;35.67;21.03;;;12.10;85.40;;;;;;5051313;28;20454;-71
2022/03/26 08:09:23;;;;;;;33.57;21.30;;;12.20;85.60;;;;;;5039411;28;21000;-71
2022/03/26 08:11:50;;;;;;;40.80;23.40;;;12.20;85.60;;;;;;5037866;28;20723;-72
2022/03/26 08:14:17;;;;;;;42.33;26.80;;;12.20;86.50;;;;;;5054974;28;20546;-71
2022/03/26 08:17:09;;;;;;;39.37;23.20;;;12.20;87.40;;;;;;5069564;28;20489;-71
2022/03/26 08:19:37;;;;;;;62.13;31.73;;;12.20;88.00;;;;;;5068866;28;20510;-70
2022/03/26 08:22:06;;;;;;;53.93;28.37;;;12.30;88.80;;;;;;5053967;28;20423;-70
2022/03/26 08:24:32;;;;;;;61.77;31.47;;;12.40;89.30;;;;;;5054882;28;20946;-69
2022/03/26 08:27:00;;;;;;;57.17;32.37;;;12.50;89.90;;;;;;5038475;28;20451;-70
2022/03/26 08:29:29;;;;;;;53.60;30.63;;;12.50;90.10;;;;;;5055269;28;20467;-69
2022/03/26 08:31:55;;;;;;;51.93;29.77;;;12.60;89.90;;;;;;5070572;28;20405;-71
2022/03/26 08:34:21;;;;;;;48.47;30.07;;;12.70;90.40;;;;;;5049285;28;20432;-70
2022/03/26 08:36:47;;;;;;;51.90;27.73;;;12.80;90.50;;;;;;5074619;28;20447;-70
2022/03/26 08:39:13;;;;;;;49.37;28.80;;;12.80;90.20;;;;;;5055820;28;20439;-71
2022/03/26 08:41:39;;;;;;;54.00;30.70;;;12.90;90.30;;;;;;5074502;28;20401;-70
2022/03/26 08:44:05;;;;;;;76.17;43.93;;;12.90;90.60;;;;;;5063586;28;20789;-70
2022/03/26 08:46:31;;;;;;;62.33;41.20;;;13.00;90.80;;;;;;5054198;28;20470;-70
2022/03/26 08:48:58;;;;;;;57.40;33.30;;;13.00;90.40;;;;;;5055786;28;20473;-70
2022/03/26 08:51:24;;;;;;;49.93;31.10;;;13.10;90.40;;;;;;5061242;28;20441;-70
2022/03/26 08:53:52;;;;;;;49.20;28.17;;;13.10;90.20;;;;;;5073742;28;20413;-70
2022/03/26 08:56:18;;;;;;;46.33;27.90;;;13.20;90.20;;;;;;5069057;28;20443;-71
2022/03/26 08:58:44;;;;;;;42.90;27.10;;;13.20;90.40;;;;;;5054123;28;20398;-70
2022/03/26 09:01:11;;;;;;;48.70;26.17;;;13.30;90.50;;;;;;5087579;28;20452;-70
2022/03/26 09:03:40;;;;;;;47.50;26.40;;;13.40;90.70;;;;;;5073539;28;20496;-70
2022/03/26 09:06:08;;;;;;;46.53;26.07;;;13.40;90.30;;;;;;5075709;28;20544;-70
2022/03/26 09:08:35;;;;;;;41.40;24.37;;;13.50;90.30;;;;;;5070694;28;20493;-70
2022/03/26 09:11:02;;;;;;;41.47;25.70;;;13.60;90.50;;;;;;5053779;28;20465;-71
2022/03/26 09:13:28;;;;;;;50.87;30.90;;;13.60;90.20;;;;;;5037580;28;20467;-71
2022/03/26 09:15:54;;;;;;;50.57;28.80;;;13.70;90.20;;;;;;5053937;28;20842;-71
2022/03/26 09:18:21;;;;;;;42.03;24.23;;;13.70;90.30;;;;;;5075710;28;20702;-71
2022/03/26 09:20:47;;;;;;;51.67;23.07;;;13.80;90.20;;;;;;5056378;28;20458;-71
2022/03/26 09:23:13;;;;;;;42.60;22.57;;;13.90;90.00;;;;;;5042785;28;20429;-71
2022/03/26 09:25:39;;;;;;;33.20;20.80;;;14.00;90.40;;;;;;5056807;28;20450;-71
2022/03/26 09:28:05;;;;;;;42.77;21.97;;;14.00;90.10;;;;;;5062126;28;20203;-71
2022/03/26 09:30:31;;;;;;;49.83;21.57;;;14.10;90.30;;;;;;5067677;28;20421;-71
2022/03/26 09:32:58;;;;;;;42.63;21.23;;;14.20;90.30;;;;;;5054205;28;20629;-71
2022/03/26 09:35:25;;;;;;;35.33;18.77;;;14.30;89.90;;;;;;5064348;28;20639;-71
2022/03/26 09:37:51;;;;;;;34.07;18.20;;;14.30;89.90;;;;;;5091440;28;20406;-71
2022/03/26 09:40:20;;;;;;;48.87;23.57;;;14.40;89.60;;;;;;5064020;28;20461;-72
2022/03/26 09:42:46;;;;;;;37.20;19.37;;;14.50;90.10;;;;;;5091112;28;20775;-71
2022/03/26 09:45:12;;;;;;;31.40;19.33;;;14.60;89.30;;;;;;5090793;28;20447;-72
2022/03/26 09:47:38;;;;;;;38.23;19.60;;;14.70;87.90;;;;;;5083643;28;20438;-72
2022/03/26 09:50:07;;;;;;;31.67;18.73;;;14.70;86.90;;;;;;5071348;28;20446;-73
2022/03/26 09:52:34;;;;;;;81.37;22.83;;;14.80;87.10;;;;;;5069468;28;20464;-69
2022/03/26 09:55:03;;;;;;;53.27;21.60;;;14.90;86.80;;;;;;5054811;28;20891;-73
2022/03/26 09:57:29;;;;;;;44.43;21.30;;;14.90;86.60;;;;;;5063144;28;20915;-73
2022/03/26 09:59:57;;;;;;;33.73;19.70;;;15.00;86.70;;;;;;5038106;28;20410;-73
2022/03/26 10:02:25;;;;;;;46.53;24.93;;;15.00;87.20;;;;;;5054948;28;20414;-73
2022/03/26 10:04:52;;;;;;;48.57;28.93;;;15.00;85.70;;;;;;5054051;28;20448;-72
2022/03/26 10:07:28;;;;;;;51.17;29.80;;;15.20;84.10;;;;;;5056728;28;20899;-73
2022/03/26 10:09:55;;;;;;;42.13;28.13;;;15.20;84.00;;;;;;5055041;28;20460;-73
2022/03/26 10:12:25;;;;;;;45.60;27.07;;;15.20;85.30;;;;;;5072757;28;20448;-73
2022/03/26 10:15:06;;;;;;;50.43;30.80;;;15.30;84.20;;;;;;5087199;28;20445;-69
2022/03/26 10:17:34;;;;;;;54.67;31.57;;;15.30;86.20;;;;;;5050716;28;21001;-70
2022/03/26 10:20:10;;;;;;;54.00;32.77;;;15.40;86.00;;;;;;5070922;28;20405;-69
2022/03/26 10:22:49;;;;;;;59.03;32.60;;;15.50;85.30;;;;;;5050608;28;20480;-69
2022/03/26 10:25:23;;;;;;;58.40;31.53;;;15.50;84.80;;;;;;5069321;28;20544;-70
2022/03/26 10:27:48;;;;;;;562.40;74.27;;;15.60;84.50;;;;;;5050366;28;20463;-73
2022/03/26 10:33:19;;;;;;;62.63;27.10;;;15.60;83.10;;;;;;5067305;28;20442;-69
2022/03/26 10:35:56;;;;;;;36.13;18.37;;;15.70;82.00;;;;;;5068586;28;20431;-69
2022/03/26 10:38:39;;;;;;;27.07;18.50;;;15.80;82.80;;;;;;5079315;28;20450;-70
2022/03/26 10:41:07;;;;;;;34.00;18.40;;;15.80;82.40;;;;;;5049451;28;20398;-70
2022/03/26 10:43:35;;;;;;;25.17;17.73;;;15.90;81.20;;;;;;5074107;28;21221;-70
2022/03/26 10:46:02;;;;;;;33.20;18.70;;;16.00;81.70;;;;;;5088381;28;20943;-70
2022/03/26 10:48:34;;;;;;;25.57;18.43;;;16.00;80.80;;;;;;5050607;28;20464;-70
2022/03/26 10:51:08;;;;;;;28.80;17.47;;;16.10;80.30;;;;;;5067580;28;20433;-70
2022/03/26 10:53:46;;;;;;;23.03;15.97;;;16.10;81.00;;;;;;5052828;28;20442;-70
2022/03/26 10:56:14;;;;;;;25.77;15.30;;;16.20;80.60;;;;;;5072658;28;20419;-70
2022/03/26 10:58:43;;;;;;;30.73;16.13;;;16.20;80.80;;;;;;5075384;28;20440;-70
2022/03/26 11:01:10;;;;;;;20.33;13.07;;;16.20;80.00;;;;;;5088277;28;20419;-71
2022/03/26 11:03:36;;;;;;;23.20;13.10;;;16.20;79.10;;;;;;5069515;28;20439;-68
2022/03/26 11:06:08;;;;;;;22.60;12.93;;;16.20;77.70;;;;;;5074312;28;20873;-68
2022/03/26 11:08:36;;;;;;;21.10;12.47;;;16.30;76.60;;;;;;5046127;28;20991;-68
2022/03/26 11:11:10;;;;;;;24.30;11.37;;;16.40;73.70;;;;;;5057458;28;20504;-68
2022/03/26 11:13:44;;;;;;;21.87;12.67;;;16.30;74.00;;;;;;5063544;28;20520;-67
2022/03/26 11:16:25;;;;;;;16.53;12.20;;;16.40;74.90;;;;;;5074178;28;21069;-68
2022/03/26 11:19:10;;;;;;;20.47;12.10;;;16.40;76.10;;;;;;5022787;28;20958;-66
2022/03/26 11:22:10;;;;;;;22.67;11.53;;;16.50;74.90;;;;;;5056479;28;20419;-66
2022/03/26 11:25:12;;;;;;;19.00;12.30;;;16.60;75.90;;;;;;5040513;28;20476;-68
2022/03/26 11:28:21;;;;;;;17.53;11.93;;;16.70;75.70;;;;;;5055914;28;20491;-67
2022/03/26 11:31:01;;;;;;;21.10;13.17;;;16.70;75.80;;;;;;5056482;28;20411;-70
2022/03/26 11:33:40;;;;;;;18.43;11.60;;;16.70;77.50;;;;;;5040650;28;20417;-72
2022/03/26 11:36:08;;;;;;;20.80;12.53;;;16.80;78.80;;;;;;5058841;28;20995;-74
2022/03/26 11:38:34;;;;;;;17.57;11.90;;;16.80;77.80;;;;;;5058682;28;20500;-73
2022/03/26 11:41:03;;;;;;;18.00;11.67;;;16.90;79.40;;;;;;5058974;28;20409;-72
2022/03/26 11:43:47;;;;;;;17.33;11.83;;;16.90;77.80;;;;;;5064355;28;20764;-75
2022/03/26 11:52:21;;;;;;;17.30;11.00;;;17.10;78.90;;;;;;5052031;28;20479;-75
2022/03/26 11:54:56;;;;;;;13.33;10.50;;;17.10;77.90;;;;;;5055519;28;20439;-73
2022/03/26 11:57:29;;;;;;;12.83;8.73;;;17.20;78.70;;;;;;5040940;28;20415;-73
2022/03/26 11:59:58;;;;;;;12.63;8.93;;;17.30;77.30;;;;;;5057246;28;20439;-71
2022/03/26 12:02:35;;;;;;;13.07;8.00;;;17.40;77.50;;;;;;5064826;28;20412;-69
2022/03/26 12:08:18;;;;;;;9.90;7.50;;;17.40;76.10;;;;;;5053148;28;20432;-71
2022/03/26 12:10:47;;;;;;;10.00;6.97;;;17.40;75.80;;;;;;5071204;28;20426;-71
2022/03/26 12:13:21;;;;;;;11.77;6.87;;;17.40;76.00;;;;;;5070725;28;20413;-71
2022/03/26 12:16:06;;;;;;;11.30;6.97;;;17.50;74.10;;;;;;5044649;28;20448;-71
2022/03/26 12:18:39;;;;;;;9.97;6.10;;;17.60;74.50;;;;;;5049354;28;20987;-71
2022/03/26 12:21:18;;;;;;;8.87;6.43;;;17.60;72.80;;;;;;5055266;28;20861;-74
2022/03/26 12:23:44;;;;;;;9.83;6.37;;;17.60;72.50;;;;;;5022216;28;20531;-72
2022/03/26 12:26:10;;;;;;;13.03;6.83;;;17.60;74.40;;;;;;5073166;28;20938;-71
2022/03/26 12:28:37;;;;;;;12.97;6.40;;;17.70;74.20;;;;;;5056167;28;20440;-72
2022/03/26 12:31:08;;;;;;;12.10;7.23;;;17.80;74.00;;;;;;5057185;28;20801;-72
2022/03/26 12:33:45;;;;;;;12.47;7.10;;;17.80;72.80;;;;;;5039703;28;20424;-70
2022/03/26 12:36:14;;;;;;;9.80;6.30;;;17.80;72.90;;;;;;5056000;28;21071;-72
2022/03/26 12:38:53;;;;;;;9.17;6.93;;;17.90;72.00;;;;;;5078319;28;20541;-72
2022/03/26 12:41:19;;;;;;;14.37;8.23;;;17.90;72.30;;;;;;5054669;28;20890;-72
2022/03/26 12:44:01;;;;;;;13.43;7.53;;;17.90;72.60;;;;;;5080003;28;20428;-72
2022/03/26 12:46:35;;;;;;;11.17;7.30;;;17.90;72.90;;;;;;5052479;28;20449;-72
2022/03/26 12:49:26;;;;;;;8.40;6.27;;;18.00;73.20;;;;;;5053595;28;20463;-72
2022/03/26 12:51:53;;;;;;;9.63;6.73;;;18.00;72.80;;;;;;5037362;28;20525;-71
2022/03/26 12:54:22;;;;;;;7.73;5.43;;;18.10;73.70;;;;;;5055566;28;20490;-72
2022/03/26 12:56:52;;;;;;;11.00;5.40;;;18.10;71.20;;;;;;5089353;28;20526;-70
2022/03/26 12:59:18;;;;;;;10.43;5.47;;;18.20;68.40;;;;;;5091008;28;20413;-72
2022/03/26 13:01:44;;;;;;;6.20;5.03;;;18.20;68.50;;;;;;5040766;28;20443;-72
2022/03/26 13:04:14;;;;;;;6.17;5.00;;;18.20;67.40;;;;;;5057117;28;20428;-72
2022/03/26 13:06:41;;;;;;;11.10;5.77;;;18.20;68.00;;;;;;5076478;28;20449;-72
2022/03/26 13:09:07;;;;;;;6.70;5.27;;;18.20;68.50;;;;;;5062463;28;20468;-71
2022/03/26 13:11:34;;;;;;;8.93;6.30;;;18.20;68.50;;;;;;5060061;28;20456;-72
2022/03/26 13:14:02;;;;;;;11.30;5.93;;;18.20;69.10;;;;;;5080054;28;20408;-73
2022/03/26 13:16:30;;;;;;;9.37;6.33;;;18.20;69.70;;;;;;5073832;28;20445;-72
2022/03/26 13:19:12;;;;;;;8.10;5.30;;;18.20;68.80;;;;;;5070314;28;20498;-72
2022/03/26 13:21:47;;;;;;;11.47;6.30;;;18.30;69.10;;;;;;5073605;28;20393;-71
2022/03/26 13:24:15;;;;;;;9.90;5.70;;;18.40;68.00;;;;;;5053234;28;20425;-72
2022/03/26 13:26:44;;;;;;;7.57;5.90;;;18.50;66.50;;;;;;5054871;28;20478;-72
2022/03/26 13:29:12;;;;;;;13.33;6.80;;;18.50;68.60;;;;;;5057223;28;21003;-72
2022/03/26 13:31:45;;;;;;;10.67;7.50;;;18.60;69.30;;;;;;5087684;28;20453;-72
2022/03/26 13:34:13;;;;;;;7.50;6.60;;;18.60;68.70;;;;;;5040686;28;20420;-72
2022/03/26 13:36:45;;;;;;;10.57;6.27;;;18.60;68.40;;;;;;5047596;28;20452;-72
2022/03/26 13:39:21;;;;;;;11.60;6.93;;;18.70;69.50;;;;;;5053364;28;20397;-72
2022/03/26 13:41:48;;;;;;;13.30;8.10;;;18.70;69.10;;;;;;5050035;28;20493;-72
2022/03/26 13:44:14;;;;;;;9.87;7.33;;;18.80;69.10;;;;;;5040206;28;20487;-72
2022/03/26 13:46:41;;;;;;;9.37;6.73;;;18.80;66.90;;;;;;5073128;28;20441;-72
2022/03/26 13:49:08;;;;;;;9.87;7.10;;;18.80;67.50;;;;;;5036649;28;20473;-72
2022/03/26 13:51:40;;;;;;;10.13;7.20;;;18.90;67.50;;;;;;5057126;28;20460;-72
2022/03/26 13:54:09;;;;;;;11.60;7.47;;;18.90;65.00;;;;;;5064209;28;20513;-73
2022/03/26 13:56:37;;;;;;;11.10;8.33;;;18.90;65.10;;;;;;5040365;28;20446;-72
2022/03/26 13:59:07;;;;;;;11.83;7.43;;;19.00;65.60;;;;;;5054091;28;20441;-73
2022/03/26 14:01:38;;;;;;;12.67;8.27;;;19.00;66.00;;;;;;5071641;28;20405;-72
2022/03/26 14:04:04;;;;;;;13.90;8.80;;;19.00;67.10;;;;;;5037181;28;20474;-72
2022/03/26 14:06:33;;;;;;;11.90;8.77;;;19.00;65.00;;;;;;5071029;28;20501;-73
2022/03/26 14:09:10;;;;;;;13.20;8.80;;;19.00;66.30;;;;;;5054299;28;20556;-72
2022/03/26 14:11:36;;;;;;;8.83;7.23;;;19.10;66.20;;;;;;5052813;28;20466;-72
2022/03/26 14:14:02;;;;;;;10.27;6.20;;;19.00;66.50;;;;;;5049676;28;20929;-73
2022/03/26 14:16:28;;;;;;;11.87;7.87;;;19.00;64.50;;;;;;5049160;28;20264;-73
2022/03/26 14:18:53;;;;;;;11.67;7.80;;;19.10;64.70;;;;;;5081549;28;20414;-75
2022/03/26 14:21:22;;;;;;;12.53;6.93;;;19.10;63.90;;;;;;5057923;28;20926;-73
2022/03/26 14:23:48;;;;;;;9.77;6.97;;;19.20;64.20;;;;;;5036762;28;20766;-72
2022/03/26 14:26:14;;;;;;;12.30;7.57;;;19.20;64.60;;;;;;5035725;28;20518;-72
2022/03/26 14:28:40;;;;;;;9.17;7.43;;;19.20;63.80;;;;;;5053104;28;20978;-73
2022/03/26 14:31:07;;;;;;;11.73;8.80;;;19.20;63.80;;;;;;5053498;28;20430;-74
2022/03/26 14:33:33;;;;;;;11.00;7.30;;;19.20;63.60;;;;;;5072815;28;20424;-73
2022/03/26 14:35:59;;;;;;;8.87;6.47;;;19.20;65.00;;;;;;5084364;28;20931;-74
2022/03/26 14:38:27;;;;;;;12.57;7.10;;;19.20;64.60;;;;;;5053237;28;20461;-74
2022/03/26 14:40:54;;;;;;;11.60;6.60;;;19.20;64.30;;;;;;5063433;28;20465;-74
2022/03/26 14:43:20;;;;;;;8.43;7.00;;;19.30;64.90;;;;;;5052076;28;20422;-74
2022/03/26 14:45:47;;;;;;;9.30;7.83;;;19.30;65.40;;;;;;5072465;28;20488;-74
2022/03/26 14:48:13;;;;;;;12.83;6.90;;;19.40;64.50;;;;;;5057480;28;20409;-75
2022/03/26 14:50:40;;;;;;;8.50;7.40;;;19.50;64.10;;;;;;5052427;28;20515;-74
2022/03/26 14:53:06;;;;;;;10.13;7.40;;;19.50;63.70;;;;;;5073174;28;20498;-74
2022/03/26 14:55:32;;;;;;;9.93;6.53;;;19.50;63.60;;;;;;5041206;28;20541;-74
2022/03/26 14:58:00;;;;;;;9.57;7.20;;;19.50;65.30;;;;;;5060760;28;20420;-74
2022/03/26 15:00:26;;;;;;;10.27;7.87;;;19.50;64.20;;;;;;5036012;28;20422;-74